createdAt,value
2023-05-10T00:02:20.239Z,95.55
2023-05-10T00:04:48.926Z,95.73
2023-05-10T00:07:18.717Z,95.25
2023-05-10T00:09:47.259Z,95.42
2023-05-10T00:12:15.913Z,95.06
2023-05-10T00:14:44.470Z,94.87
2023-05-10T00:17:13.118Z,95.33
2023-05-10T00:19:41.804Z,95.18
2023-05-10T00:22:10.379Z,95.07
2023-05-10T00:24:38.932Z,96.56
2023-05-10T00:27:07.583Z,95.54
2023-05-10T00:29:36.372Z,96.75
2023-05-10T00:32:05.574Z,97.92
2023-05-10T00:34:34.423Z,96.75
2023-05-10T00:37:03.027Z,96.27
2023-05-10T00:39:31.570Z,96.79
2023-05-10T00:42:00.822Z,96.73
2023-05-10T00:44:29.806Z,97.90
2023-05-10T00:47:00.179Z,97.77
2023-05-10T00:49:29.662Z,97.95
2023-05-10T00:51:59.253Z,97.80
2023-05-10T00:54:30.157Z,97.56
2023-05-10T01:01:37.898Z,96.77
2023-05-10T01:09:16.459Z,99.38
2023-05-10T01:12:44.562Z,99.98
2023-05-10T01:15:16.880Z,98.38
2023-05-10T01:17:49.535Z,97.29
2023-05-10T01:20:19.323Z,97.44
2023-05-10T01:49:28.180Z,98.88
2023-05-10T01:52:07.547Z,98.44
2023-05-10T01:54:40.432Z,98.49
2023-05-10T01:57:15.424Z,98.39
2023-05-10T01:59:47.426Z,99.23
2023-05-10T02:02:17.000Z,98.77
2023-05-10T02:04:49.395Z,98.77
2023-05-10T02:07:19.433Z,100.00
2023-05-10T02:09:52.040Z,99.66
2023-05-10T02:12:23.918Z,99.14
2023-05-10T02:14:56.274Z,99.95
2023-05-10T02:22:38.161Z,99.72
2023-05-10T02:25:09.616Z,99.89
2023-05-10T02:27:38.673Z,100.00
2023-05-10T02:30:08.754Z,99.96
2023-05-10T02:32:38.825Z,99.98
2023-05-10T02:35:09.564Z,99.74
2023-05-10T02:37:42.552Z,100.00
2023-05-10T02:40:12.806Z,100.00
2023-05-10T02:42:44.974Z,99.36
2023-05-10T02:45:18.638Z,99.96
2023-05-10T02:47:47.234Z,99.69
2023-05-10T02:50:16.433Z,99.83
2023-05-10T02:52:55.446Z,99.93
2023-05-10T02:55:33.521Z,100.00
2023-05-10T02:58:03.896Z,100.00
2023-05-10T03:00:32.700Z,99.99
2023-05-10T03:03:03.030Z,100.00
2023-05-10T03:05:31.869Z,100.00
2023-05-10T03:08:05.698Z,100.00
2023-05-10T03:10:50.130Z,100.00
2023-05-10T03:13:38.116Z,100.00
2023-05-10T03:16:23.775Z,100.00
2023-05-10T03:19:04.152Z,100.00
2023-05-10T03:21:37.122Z,100.00
2023-05-10T03:24:13.087Z,100.00
2023-05-10T03:26:46.626Z,100.00
2023-05-10T03:29:18.796Z,100.00
2023-05-10T03:31:47.689Z,100.00
2023-05-10T03:34:16.764Z,100.00
2023-05-10T03:36:45.370Z,100.00
2023-05-10T03:39:14.147Z,100.00
2023-05-10T03:41:43.390Z,100.00
2023-05-10T03:44:12.457Z,100.00
2023-05-10T03:46:41.576Z,100.00
2023-05-10T03:49:10.848Z,99.96
2023-05-10T03:51:41.261Z,99.97
2023-05-10T03:54:09.880Z,100.00
2023-05-10T03:56:38.685Z,99.60
2023-05-10T03:59:09.942Z,99.37
2023-05-10T04:01:38.790Z,99.18
2023-05-10T04:04:08.188Z,98.62
2023-05-10T04:06:37.274Z,98.18
2023-05-10T04:09:06.751Z,98.00
2023-05-10T04:11:35.398Z,97.86
2023-05-10T04:14:04.620Z,97.48
2023-05-10T04:16:33.767Z,96.90
2023-05-10T04:19:06.957Z,96.37
2023-05-10T04:21:36.373Z,96.28
2023-05-10T04:24:06.636Z,95.57
2023-05-10T04:26:35.385Z,94.86
2023-05-10T04:29:04.054Z,93.72
2023-05-10T04:31:32.744Z,93.23
2023-05-10T04:34:01.441Z,93.81
2023-05-10T04:36:37.754Z,92.93
2023-05-10T04:39:06.806Z,92.91
2023-05-10T04:41:35.691Z,92.78
2023-05-10T04:44:04.620Z,92.15
2023-05-10T04:46:33.219Z,92.42
2023-05-10T04:49:01.646Z,91.75
2023-05-10T04:51:30.292Z,90.39
2023-05-10T04:54:06.169Z,90.43
2023-05-10T04:56:35.392Z,90.01
2023-05-10T04:59:04.105Z,89.17
2023-05-10T05:01:32.536Z,89.37
2023-05-10T05:04:06.166Z,87.58
2023-05-10T05:06:34.668Z,88.77
2023-05-10T05:09:03.442Z,87.05
2023-05-10T05:11:31.991Z,87.80
2023-05-10T05:14:00.726Z,86.15
2023-05-10T05:16:54.453Z,86.11
2023-05-10T05:19:24.987Z,85.50
2023-05-10T05:21:53.574Z,84.06
2023-05-10T05:24:22.233Z,84.07
2023-05-10T05:26:50.841Z,84.08
2023-05-10T05:29:19.589Z,84.50
2023-05-10T05:31:48.152Z,84.16
2023-05-10T05:34:17.089Z,83.47
2023-05-10T05:36:45.522Z,82.68
2023-05-10T05:39:14.965Z,80.68
2023-05-10T05:41:43.654Z,81.80
2023-05-10T05:44:12.017Z,79.20
2023-05-10T05:46:40.642Z,76.94
2023-05-10T05:49:09.243Z,77.26
2023-05-10T05:51:37.530Z,75.75
2023-05-10T05:54:06.247Z,76.45
2023-05-10T05:56:34.592Z,76.21
2023-05-10T05:59:03.060Z,77.43
2023-05-10T06:01:31.528Z,74.01
2023-05-10T06:04:00.283Z,75.98
2023-05-10T06:06:29.038Z,75.17
2023-05-10T06:08:57.472Z,72.67
2023-05-10T06:11:27.319Z,71.96
2023-05-10T06:13:55.835Z,70.73
2023-05-10T06:16:24.620Z,70.87
2023-05-10T06:18:53.219Z,71.29
2023-05-10T06:21:21.678Z,71.51
2023-05-10T06:23:50.083Z,68.78
2023-05-10T06:26:18.688Z,68.14
2023-05-10T06:28:47.152Z,66.30
2023-05-10T06:31:15.678Z,66.68
2023-05-10T06:33:44.319Z,65.93
2023-05-10T06:36:12.987Z,66.26
2023-05-10T06:38:41.593Z,64.52
2023-05-10T06:41:10.034Z,65.52
2023-05-10T06:43:41.188Z,67.03
2023-05-10T06:46:09.823Z,65.86
2023-05-10T06:48:38.392Z,64.10
2023-05-10T06:51:06.783Z,60.80
2023-05-10T06:53:35.237Z,60.47
2023-05-10T06:56:04.530Z,60.03
2023-05-10T06:58:33.878Z,59.73
2023-05-10T07:01:06.556Z,58.00
2023-05-10T07:03:35.167Z,58.86
2023-05-10T07:06:05.030Z,58.21
2023-05-10T07:08:34.091Z,56.36
2023-05-10T07:11:10.187Z,56.71
2023-05-10T07:13:40.317Z,58.70
2023-05-10T07:16:08.972Z,57.96
2023-05-10T07:18:37.530Z,56.46
2023-05-10T07:21:06.031Z,56.02
2023-05-10T07:23:34.554Z,54.31
2023-05-10T07:26:03.454Z,53.12
2023-05-10T07:28:31.887Z,52.34
2023-05-10T07:31:00.393Z,49.97
2023-05-10T07:33:30.354Z,47.42
2023-05-10T07:35:58.956Z,47.04
2023-05-10T07:38:27.366Z,46.52
2023-05-10T07:40:55.840Z,45.16
2023-05-10T07:43:24.285Z,41.52
2023-05-10T07:45:55.352Z,40.20
2023-05-10T07:48:24.720Z,42.19
2023-05-10T07:50:53.303Z,43.52
2023-05-10T07:53:21.941Z,40.25
2023-05-10T07:56:00.564Z,39.94
2023-05-10T07:58:29.078Z,39.39
2023-05-10T08:00:57.632Z,38.48
2023-05-10T08:03:26.151Z,37.61
2023-05-10T08:05:54.630Z,39.17
2023-05-10T08:08:23.921Z,41.04
2023-05-10T08:10:52.534Z,41.03
2023-05-10T08:13:21.035Z,40.67
2023-05-10T08:15:49.658Z,40.53
2023-05-10T08:18:18.591Z,39.44
2023-05-10T08:20:47.211Z,35.81
2023-05-10T08:23:15.727Z,37.36
2023-05-10T08:25:44.153Z,38.92
2023-05-10T08:28:12.558Z,38.51
2023-05-10T08:30:40.965Z,37.22
2023-05-10T08:33:09.549Z,38.15
2023-05-10T08:35:38.109Z,37.80
2023-05-10T08:38:06.729Z,37.99
2023-05-10T08:40:37.690Z,37.61
2023-05-10T08:43:09.636Z,37.89
2023-05-10T08:45:46.538Z,37.73
2023-05-10T08:48:15.301Z,38.20
2023-05-10T08:50:46.333Z,39.46
2023-05-10T08:53:17.674Z,38.52
2023-05-10T08:55:47.306Z,37.36
2023-05-10T08:58:15.921Z,37.72
2023-05-10T09:00:44.726Z,37.24
2023-05-10T09:03:13.899Z,37.09
2023-05-10T09:05:43.220Z,36.66
2023-05-10T09:08:13.076Z,37.23
2023-05-10T09:10:44.536Z,36.45
2023-05-10T09:13:14.044Z,36.21
2023-05-10T09:15:42.933Z,37.13
2023-05-10T09:18:11.733Z,36.82
2023-05-10T09:20:40.249Z,35.07
2023-05-10T09:23:08.995Z,36.82
2023-05-10T09:25:39.782Z,39.19
2023-05-10T09:28:09.927Z,40.81
2023-05-10T09:30:38.748Z,40.74
2023-05-10T09:33:07.404Z,41.12
2023-05-10T09:35:36.039Z,40.81
2023-05-10T09:38:06.577Z,40.07
2023-05-10T09:40:35.119Z,35.40
2023-05-10T09:43:07.256Z,35.22
2023-05-10T09:45:38.864Z,35.59
2023-05-10T09:48:08.032Z,34.85
2023-05-10T09:50:36.611Z,35.65
2023-05-10T09:53:05.313Z,36.05
2023-05-10T09:55:47.136Z,35.85
2023-05-10T09:58:16.028Z,34.56
2023-05-10T10:00:46.730Z,33.09
2023-05-10T10:03:21.107Z,31.59
2023-05-10T10:05:50.288Z,32.58
2023-05-10T10:08:18.868Z,32.67
2023-05-10T10:10:47.997Z,31.36
2023-05-10T10:13:16.809Z,32.57
2023-05-10T10:15:47.176Z,32.63
2023-05-10T10:18:18.788Z,31.82
2023-05-10T10:20:47.551Z,31.92
2023-05-10T10:23:17.568Z,32.24
2023-05-10T10:25:50.011Z,31.55
2023-05-10T10:28:42.623Z,30.16
2023-05-10T10:31:46.391Z,30.97
2023-05-10T10:34:29.293Z,30.47
2023-05-10T10:36:59.330Z,31.45
2023-05-10T10:39:28.384Z,30.66
2023-05-10T10:41:59.021Z,31.09
2023-05-10T10:44:31.958Z,31.50
2023-05-10T10:47:31.175Z,30.73
2023-05-10T10:50:02.999Z,31.64
2023-05-10T10:52:39.986Z,30.94
2023-05-10T10:55:19.391Z,30.56
2023-05-10T10:57:56.496Z,29.90
2023-05-10T11:00:32.936Z,31.05
2023-05-10T11:03:15.588Z,31.29
2023-05-10T11:05:45.627Z,31.15
2023-05-10T11:08:21.075Z,30.59
2023-05-10T11:11:01.937Z,31.26
2023-05-10T11:13:51.334Z,31.13
2023-05-10T11:16:26.426Z,31.04
2023-05-10T11:18:57.867Z,29.95
2023-05-10T11:21:27.276Z,28.24
2023-05-10T11:24:01.350Z,28.03
2023-05-10T11:26:36.167Z,27.73
2023-05-10T11:29:06.083Z,28.74
2023-05-10T11:31:34.845Z,28.79
2023-05-10T11:34:03.430Z,28.89
2023-05-10T11:36:37.023Z,29.96
2023-05-10T11:39:06.923Z,30.15
2023-05-10T11:41:35.513Z,29.15
2023-05-10T11:44:03.982Z,29.90
2023-05-10T11:46:32.622Z,29.19
2023-05-10T11:49:05.521Z,28.90
2023-05-10T11:51:40.451Z,30.46
2023-05-10T11:54:11.927Z,33.23
2023-05-10T11:56:42.345Z,33.97
2023-05-10T11:59:10.972Z,34.65
2023-05-10T12:01:39.787Z,35.20
2023-05-10T12:04:08.493Z,36.27
2023-05-10T12:06:42.101Z,36.00
2023-05-10T12:09:11.298Z,36.00
2023-05-10T12:11:44.273Z,36.40
2023-05-10T12:14:13.394Z,36.73
2023-05-10T12:16:41.833Z,36.30
2023-05-10T12:19:10.539Z,36.01
2023-05-10T12:21:40.159Z,35.58
2023-05-10T12:24:09.013Z,34.90
2023-05-10T12:26:38.477Z,35.40
2023-05-10T12:29:18.773Z,35.19
2023-05-10T12:31:59.489Z,34.65
2023-05-10T12:34:32.320Z,33.90
2023-05-10T12:37:01.389Z,34.19
2023-05-10T12:39:45.856Z,34.28
2023-05-10T12:42:14.602Z,33.77
2023-05-10T12:44:43.275Z,32.66
2023-05-10T12:47:11.953Z,33.52
2023-05-10T12:49:40.458Z,32.73
2023-05-10T12:52:09.022Z,32.22
2023-05-10T12:54:37.597Z,32.15
2023-05-10T12:57:06.181Z,31.95
2023-05-10T12:59:36.060Z,31.89
2023-05-10T13:02:08.197Z,31.32
2023-05-10T13:04:40.538Z,31.48
2023-05-10T13:07:09.021Z,31.71
2023-05-10T13:09:37.757Z,30.65
2023-05-10T13:12:08.109Z,30.75
2023-05-10T13:14:38.382Z,31.21
2023-05-10T13:17:07.118Z,30.93
2023-05-10T13:19:35.858Z,31.24
2023-05-10T13:22:04.390Z,30.79
2023-05-10T13:24:32.886Z,30.83
2023-05-10T13:27:01.310Z,30.84
2023-05-10T13:29:29.950Z,30.49
2023-05-10T13:31:58.853Z,30.18
2023-05-10T13:34:27.917Z,30.86
2023-05-10T13:36:57.409Z,30.59
2023-05-10T13:39:25.807Z,30.52
2023-05-10T13:41:55.699Z,30.72
2023-05-10T13:44:24.678Z,30.75
2023-05-10T13:46:53.200Z,30.81
2023-05-10T13:49:22.680Z,30.29
2023-05-10T13:51:52.042Z,30.25
2023-05-10T13:54:23.347Z,30.36
2023-05-10T13:56:52.097Z,30.14
2023-05-10T13:59:20.573Z,29.76
2023-05-10T14:01:49.202Z,29.54
2023-05-10T14:04:17.852Z,29.36
2023-05-10T14:06:46.493Z,29.55
2023-05-10T14:09:15.351Z,30.48
2023-05-10T14:11:44.485Z,30.19
2023-05-10T14:14:14.419Z,30.53
2023-05-10T14:16:46.766Z,30.67
2023-05-10T14:19:15.527Z,30.36
2023-05-10T14:21:44.476Z,30.21
2023-05-10T14:24:13.072Z,30.05
2023-05-10T14:26:41.577Z,29.32
2023-05-10T14:29:12.276Z,30.12
2023-05-10T14:31:41.787Z,29.71
2023-05-10T14:34:10.365Z,30.05
2023-05-10T14:36:38.902Z,29.67
2023-05-10T14:39:07.855Z,29.87
2023-05-10T14:41:36.602Z,29.80
2023-05-10T14:44:05.083Z,30.05
2023-05-10T14:46:33.672Z,30.04
2023-05-10T14:49:02.184Z,29.49
2023-05-10T14:51:30.772Z,30.19
2023-05-10T14:53:59.264Z,28.76
2023-05-10T14:56:28.966Z,28.38
2023-05-10T14:58:57.499Z,28.86
2023-05-10T15:01:26.849Z,28.61
2023-05-10T15:03:56.157Z,28.56
2023-05-10T15:06:32.743Z,28.80
2023-05-10T15:09:04.308Z,28.98
2023-05-10T15:11:33.245Z,29.65
2023-05-10T15:14:02.988Z,29.95
2023-05-10T15:16:32.853Z,30.06
2023-05-10T15:19:03.664Z,30.05
2023-05-10T15:21:38.736Z,30.00
2023-05-10T15:24:07.309Z,30.04
2023-05-10T15:26:35.682Z,30.18
2023-05-10T15:29:04.198Z,30.07
2023-05-10T15:31:32.649Z,30.00
2023-05-10T15:34:01.414Z,30.07
2023-05-10T15:36:55.230Z,31.00
2023-05-10T15:39:23.732Z,31.08
2023-05-10T15:41:52.451Z,31.06
2023-05-10T15:44:40.053Z,31.38
2023-05-10T15:47:08.611Z,31.51
2023-05-10T15:49:37.522Z,31.95
2023-05-10T15:52:06.167Z,31.97
2023-05-10T15:54:34.804Z,31.68
2023-05-10T15:57:03.610Z,32.16
2023-05-10T15:59:33.735Z,32.09
2023-05-10T16:02:04.235Z,31.96
2023-05-10T16:04:32.813Z,31.57
2023-05-10T16:07:01.500Z,29.87
2023-05-10T16:09:30.100Z,29.86
2023-05-10T16:11:58.685Z,30.65
2023-05-10T16:14:27.150Z,29.08
2023-05-10T16:16:55.625Z,29.83
2023-05-10T16:19:24.220Z,30.11
2023-05-10T16:21:52.899Z,29.38
2023-05-10T16:24:21.500Z,30.23
2023-05-10T16:26:49.956Z,29.84
2023-05-10T16:29:19.045Z,28.86
2023-05-10T16:31:47.849Z,28.15
2023-05-10T16:34:16.581Z,28.71
2023-05-10T16:36:45.009Z,28.24
2023-05-10T16:39:13.570Z,29.41
2023-05-10T16:41:42.072Z,29.80
2023-05-10T16:44:10.519Z,30.07
2023-05-10T16:46:39.058Z,30.51
2023-05-10T16:49:08.998Z,30.90
2023-05-10T16:51:37.414Z,30.99
2023-05-10T16:54:06.029Z,31.21
2023-05-10T16:56:34.459Z,31.47
2023-05-10T16:59:03.071Z,31.65
2023-05-10T17:01:31.769Z,31.60
2023-05-10T17:04:00.466Z,31.97
2023-05-10T17:06:29.519Z,32.56
2023-05-10T17:08:58.235Z,33.01
2023-05-10T17:11:27.619Z,33.28
2023-05-10T17:13:56.102Z,33.87
2023-05-10T17:16:24.709Z,34.27
2023-05-10T17:18:53.521Z,34.28
2023-05-10T17:21:22.071Z,35.24
2023-05-10T17:23:50.639Z,35.40
2023-05-10T17:26:19.254Z,35.74
2023-05-10T17:28:47.887Z,36.14
2023-05-10T17:31:16.431Z,36.91
2023-05-10T17:33:44.963Z,37.20
2023-05-10T17:36:13.560Z,37.63
2023-05-10T17:38:43.464Z,37.73
2023-05-10T17:41:12.385Z,41.64
2023-05-10T17:43:40.924Z,42.57
2023-05-10T17:46:09.571Z,45.91
2023-05-10T17:48:38.053Z,44.94
2023-05-10T17:51:06.723Z,45.30
2023-05-10T17:53:37.058Z,48.74
2023-05-10T17:56:08.285Z,49.57
2023-05-10T17:58:45.559Z,49.62
2023-05-10T18:01:16.808Z,50.18
2023-05-10T18:03:48.209Z,47.40
2023-05-10T18:06:16.864Z,46.78
2023-05-10T18:08:48.807Z,48.45
2023-05-10T18:11:27.781Z,48.21
2023-05-10T18:13:56.368Z,49.50
2023-05-10T18:16:28.545Z,51.07
2023-05-10T18:18:58.872Z,54.13
2023-05-10T18:21:37.786Z,53.32
2023-05-10T18:24:09.484Z,56.03
2023-05-10T18:26:41.232Z,55.88
2023-05-10T18:29:11.540Z,56.24
2023-05-10T18:31:40.435Z,58.28
2023-05-10T18:34:09.377Z,58.34
2023-05-10T18:36:37.821Z,59.62
2023-05-10T18:39:06.338Z,59.65
2023-05-10T18:41:36.628Z,60.93
2023-05-10T18:44:05.606Z,60.63
2023-05-10T18:46:35.807Z,60.65
2023-05-10T18:49:05.582Z,60.67
2023-05-10T18:51:34.027Z,60.08
2023-05-10T18:54:02.530Z,59.70
2023-05-10T18:56:31.131Z,61.26
2023-05-10T18:58:59.586Z,61.93
2023-05-10T19:01:28.152Z,61.40
2023-05-10T19:03:56.579Z,59.36
2023-05-10T19:06:25.016Z,59.71
2023-05-10T19:08:53.561Z,61.39
2023-05-10T19:11:22.387Z,62.23
2023-05-10T19:13:51.516Z,61.22
2023-05-10T19:16:23.255Z,61.84
2023-05-10T19:18:55.050Z,63.27
2023-05-10T19:21:25.701Z,66.13
2023-05-10T19:23:54.133Z,68.10
2023-05-10T19:26:24.318Z,68.09
2023-05-10T19:28:53.128Z,69.54
2023-05-10T19:31:22.323Z,70.29
2023-05-10T19:33:51.285Z,71.19
2023-05-10T19:36:22.048Z,71.53
2023-05-10T19:38:54.700Z,71.98
2023-05-10T19:41:23.122Z,71.88
2023-05-10T19:43:53.082Z,72.11
2023-05-10T19:46:21.732Z,72.61
2023-05-10T19:48:51.338Z,72.67
2023-05-10T19:51:19.956Z,72.66
2023-05-10T19:53:48.391Z,73.91
2023-05-10T19:56:18.390Z,73.46
2023-05-10T19:58:47.040Z,73.14
2023-05-10T20:01:15.520Z,73.07
2023-05-10T20:03:44.132Z,73.82
2023-05-10T20:06:12.531Z,73.16
2023-05-10T20:08:40.919Z,73.08
2023-05-10T20:11:09.853Z,74.80
2023-05-10T20:13:38.766Z,74.58
2023-05-10T20:16:07.618Z,74.25
2023-05-10T20:18:37.404Z,74.51
2023-05-10T20:21:06.589Z,73.97
2023-05-10T20:23:34.968Z,75.09
2023-05-10T20:26:03.770Z,75.61
2023-05-10T20:28:32.218Z,75.43
2023-05-10T20:31:02.195Z,76.04
2023-05-10T20:33:30.740Z,75.51
2023-05-10T20:35:59.190Z,75.41
2023-05-10T20:38:27.681Z,76.56
2023-05-10T20:40:56.146Z,76.93
2023-05-10T20:43:24.725Z,77.38
2023-05-10T20:45:54.241Z,77.10
2023-05-10T20:48:23.022Z,77.04
2023-05-10T20:53:45.597Z,76.56
2023-05-10T20:56:13.942Z,77.39
2023-05-10T20:58:42.433Z,77.25
2023-05-10T21:01:11.333Z,78.46
2023-05-10T21:03:39.885Z,78.57
2023-05-10T21:06:08.670Z,78.41
2023-05-10T21:08:37.227Z,79.38
2023-05-10T21:11:05.821Z,78.69
2023-05-10T21:13:34.330Z,78.33
2023-05-10T21:16:02.840Z,78.88
2023-05-10T21:18:31.433Z,79.60
2023-05-10T21:21:00.319Z,79.09
2023-05-10T21:23:28.747Z,79.53
2023-05-10T21:25:57.291Z,79.21
2023-05-10T21:28:25.814Z,77.73
2023-05-10T21:30:54.261Z,77.08
2023-05-10T21:33:23.171Z,78.37
2023-05-10T21:35:51.631Z,77.85
2023-05-10T21:38:20.214Z,78.26
2023-05-10T21:40:48.651Z,78.24
2023-05-10T21:43:16.991Z,77.76
2023-05-10T21:45:45.487Z,76.37
2023-05-10T21:48:14.042Z,75.95
2023-05-10T21:50:43.938Z,75.55
2023-05-10T21:53:12.551Z,75.53
2023-05-10T21:55:40.917Z,74.73
2023-05-10T21:58:09.298Z,74.35
2023-05-10T22:00:38.065Z,74.75
2023-05-10T22:03:06.622Z,76.69
2023-05-10T22:05:35.105Z,76.30
2023-05-10T22:08:03.561Z,76.44
2023-05-10T22:10:33.027Z,77.05
2023-05-10T22:13:01.403Z,78.26
2023-05-10T22:15:31.731Z,77.27
2023-05-10T22:18:01.431Z,77.01
2023-05-10T22:20:29.915Z,75.91
2023-05-10T22:22:58.415Z,75.52
2023-05-10T22:25:27.162Z,77.20
2023-05-10T22:27:55.746Z,79.46
2023-05-10T22:30:24.199Z,78.45
2023-05-10T22:32:53.021Z,77.63
2023-05-10T22:35:21.829Z,78.76
2023-05-10T22:37:50.387Z,78.25
2023-05-10T22:40:19.019Z,78.78
2023-05-10T22:42:47.555Z,79.16
2023-05-10T22:45:15.957Z,79.30
2023-05-10T22:47:44.484Z,79.16
2023-05-10T22:50:14.539Z,80.11
2023-05-10T22:52:42.878Z,80.54
2023-05-10T22:55:11.341Z,81.75
2023-05-10T22:57:39.917Z,80.73
2023-05-10T23:00:09.482Z,82.68
2023-05-10T23:02:38.049Z,83.64
2023-05-10T23:05:07.795Z,82.32
2023-05-10T23:07:36.236Z,83.41
2023-05-10T23:10:04.945Z,83.17
2023-05-10T23:12:33.867Z,83.62
2023-05-10T23:15:02.271Z,82.06
2023-05-10T23:17:30.701Z,81.79
2023-05-10T23:19:59.028Z,85.19
2023-05-10T23:22:27.444Z,84.25
2023-05-10T23:24:55.946Z,83.87
2023-05-10T23:27:28.432Z,82.32
2023-05-10T23:29:57.866Z,83.53
2023-05-10T23:32:26.291Z,83.35
2023-05-10T23:34:54.580Z,84.88
2023-05-10T23:37:22.958Z,84.32
2023-05-10T23:39:52.348Z,85.72
2023-05-10T23:42:20.819Z,85.50
2023-05-10T23:44:49.190Z,86.31
2023-05-10T23:47:17.576Z,85.35
2023-05-10T23:49:46.144Z,86.93
2023-05-10T23:52:14.639Z,87.40
2023-05-10T23:54:44.043Z,87.28
2023-05-10T23:57:14.655Z,85.90
2023-05-10T23:59:42.932Z,87.20
